Aviation Digital Data Service (ADDS)

Output produced by METARs form (0650 UTC 07 July 2015)
found at http://www.aviationweather.gov/adds/metars/
 
KWWD 070635Z AUTO 18012G16KT 10SM OVC006 24/22 A3005 RMK AO1